OSOK1: Oswego hwy 160

Data processed at Sat Dec 09 2017 23:49


All information presented herein is the property of the government of the United States of America and may be revised or deleted at any time without prior notice.
Dissemination of this information without the expressed written consent of the Public Affairs Office, Tulsa District U.S. Army Corps of Engineers is strictly prohibited.
These data are gathered electronically and, as presented, have not undergone any form of quality control. These data are not guaranteed to be valid or correct.
Go to home page.
Go to station list.

Upstream stations:

Downstream station:
Previous Day
Next Day
Current Day
    
SHEF ID:       OSOK1     Oswego hwy 160
STATION TYPE:  

               PRECIP     STAGE  RIV-FLOW   VOLTAGE  BAT-LOAD
                   in        ft       cfs      volt      volt
              Ccp-Rev   Ccp-Rev   Ccp-Rev   Ccp-Rev   Ccp-Rev
(US/Central)
12/07 00:00      0.00      8.24       110     12.65     12.49
12/07 01:00      0.00      8.18        95     12.65     12.49
12/07 02:00      0.00      8.22       105     12.57     12.49
12/07 03:00      0.00      8.25       113     12.57     12.41
12/07 04:00      0.00      8.26       115     12.57     12.41
12/07 05:00      0.00      8.21       103     12.49     12.41
12/07 06:00      0.00      8.26       115     12.49     12.41
12/07 07:00      0.00      8.27       118     12.49     12.33
12/07 08:00      0.00      8.27       118     12.81     12.41
12/07 09:00      0.00      8.23       108     13.53     13.53
12/07 10:00      0.00      8.23       108     13.53     13.37
12/07 11:00      0.00      8.18        95      ----      ----
12/07 12:00      0.00      8.26       115     13.84     13.44
12/07 13:00      0.00      8.26       115     13.60     13.76
12/07 14:00      0.00      8.28       120     13.68     13.53
12/07 15:00      0.00      8.27       118     14.16     13.44
12/07 16:00      0.00      8.28       120     13.68     13.37
12/07 17:00      0.00      8.29       123     13.13     13.05
12/07 18:00      0.00      8.29       123     12.89     12.81
12/07 19:00      0.00      8.29       123     12.73     12.65
12/07 20:00      0.00      8.29       123     12.65     12.57
12/07 21:00      0.00      8.30       125     12.65     12.57
12/07 22:00      0.00      8.30       125     12.65     12.49
12/07 23:00      0.00      8.30       125     12.65     12.49